Altenburg, Missouri
Current Conditions -  °F | °C
As of 1:52 PM on Friday 28 Nov 2014 (Local Time) from KMDH Reporting Station
Clear Clear  
Wind Chill: 41°   Ceiling: Unl
Heat Index: 48°   Visibility: 10mi
Dew Point: 29°   Wind: 22mph
Humidity: 48%   Direction: 190°S
Pressure: 30.09"   Gusts: 28mph
Location:  37.63°N, 89.59°W
Report Text: KMDH 281952Z AUTO 19019G24KT 10SM CLR 09/M02 A3009 RMK AO2 PK WND 19032/1859 SLP193 T00891017
Loading
Personal Weather Stations






























Interactive Weather Map New forecast layout! Learn more

10-Day Weather Forecast

Advertisements
Track Severe Weather on mobile